TimeCEST,TemperatureF,Dew PointF,Humidity,Sea Level PressureIn,VisibilityMPH,Wind Direction,Wind SpeedMPH,Gust SpeedMPH,PrecipitationIn,Events,Conditions,WindDirDegrees,DateUTC
2:00 AM,64,62,91,30.16,16,Calm,Calm,,,,,,2012-10-07 00:00:00
5:00 AM,60.8,60.8,100,30.12,-9999.0,Variable,1.2,-,N/A,,Clear,0,2012-10-07 03:00:00
5:30 AM,62.6,59.0,88,30.09,-9999.0,Variable,2.3,-,N/A,,Clear,0,2012-10-07 03:30:00
6:00 AM,62.6,59.0,88,30.09,-9999.0,East,3.5,-,N/A,,Clear,90,2012-10-07 04:00:00
6:30 AM,62.6,59.0,88,30.09,-9999.0,Variable,1.2,-,N/A,,Clear,0,2012-10-07 04:30:00
7:00 AM,60.8,59.0,94,30.09,-9999.0,Calm,Calm,-,N/A,,Clear,0,2012-10-07 05:00:00
7:30 AM,60.8,59.0,94,30.09,-9999.0,Variable,1.2,-,N/A,,Clear,0,2012-10-07 05:30:00
8:00 AM,60,58,93,30.12,25,NNW,2.3,,,,Clear,330,2012-10-07 06:00:00
8:00 AM,60.8,59.0,94,30.09,-9999.0,Variable,1.2,-,N/A,,Clear,0,2012-10-07 06:00:00
8:30 AM,59.0,57.2,94,30.12,-9999.0,Calm,Calm,-,N/A,,Clear,0,2012-10-07 06:30:00
9:00 AM,60.8,59.0,94,30.12,-9999.0,Calm,Calm,-,N/A,,Clear,0,2012-10-07 07:00:00
9:30 AM,62.6,59.0,88,30.12,-9999.0,Variable,1.2,-,N/A,,Clear,0,2012-10-07 07:30:00
10:00 AM,66.2,60.8,83,30.12,-9999.0,Calm,Calm,-,N/A,,Clear,0,2012-10-07 08:00:00
10:30 AM,68.0,62.6,83,30.15,-9999.0,Variable,1.2,-,N/A,,Clear,0,2012-10-07 08:30:00
11:00 AM,71.6,60.8,69,30.15,-9999.0,Variable,1.2,-,N/A,,Clear,0,2012-10-07 09:00:00
11:30 AM,73.4,60.8,65,30.15,-9999.0,Variable,2.3,-,N/A,,Clear,0,2012-10-07 09:30:00
12:00 PM,77.0,60.8,57,30.15,-9999.0,Variable,2.3,-,N/A,,Clear,0,2012-10-07 10:00:00
12:30 PM,78.8,60.8,54,30.12,-9999.0,Variable,2.3,-,N/A,,Clear,0,2012-10-07 10:30:00
1:00 PM,82.4,59.0,45,30.12,-9999.0,NNW,3.5,-,N/A,,Clear,340,2012-10-07 11:00:00
1:30 PM,82.4,59.0,45,30.12,-9999.0,Variable,2.3,-,N/A,,Clear,0,2012-10-07 11:30:00
2:00 PM,85,62,36,30.13,25,NNW,3.5,,,,Clear,330,2012-10-07 12:00:00
2:00 PM,84.2,57.2,40,30.12,-9999.0,Variable,2.3,-,N/A,,Clear,0,2012-10-07 12:00:00
2:30 PM,86.0,57.2,37,30.12,-9999.0,Calm,Calm,-,N/A,,Clear,0,2012-10-07 12:30:00
3:00 PM,86.0,59.0,40,30.09,-9999.0,Variable,2.3,-,N/A,,Clear,0,2012-10-07 13:00:00
3:30 PM,86.0,57.2,37,30.09,-9999.0,Variable,2.3,-,N/A,,Clear,0,2012-10-07 13:30:00
4:00 PM,87.8,57.2,35,30.09,-9999.0,Calm,Calm,-,N/A,,Clear,0,2012-10-07 14:00:00
4:30 PM,87.8,55.4,33,30.09,-9999.0,Calm,Calm,-,N/A,,Clear,0,2012-10-07 14:30:00
5:00 PM,87.8,55.4,33,30.09,-9999.0,Variable,2.3,-,N/A,,Clear,0,2012-10-07 15:00:00
5:30 PM,87.8,55.4,33,30.06,-9999.0,Variable,2.3,-,N/A,,Clear,0,2012-10-07 15:30:00
6:00 PM,89.6,55.4,31,30.06,-9999.0,Calm,Calm,-,N/A,,Clear,0,2012-10-07 16:00:00
6:30 PM,89.6,55.4,31,30.06,-9999.0,Calm,Calm,-,N/A,,Clear,0,2012-10-07 16:30:00
7:00 PM,86.0,60.8,43,30.06,-9999.0,South,4.6,-,N/A,,Clear,190,2012-10-07 17:00:00
7:30 PM,84.2,62.6,48,30.06,-9999.0,South,5.8,-,N/A,,Clear,180,2012-10-07 17:30:00
8:00 PM,80,63,47,30.10,19,WSW,9.2,,,,Clear,240,2012-10-07 18:00:00
8:00 PM,80.6,60.8,51,30.09,-9999.0,SW,8.1,-,N/A,,Clear,230,2012-10-07 18:00:00
8:30 PM,80.6,59.0,48,30.09,-9999.0,West,6.9,-,N/A,,Clear,280,2012-10-07 18:30:00
9:00 PM,77.0,60.8,57,30.09,-9999.0,West,5.8,-,N/A,,Clear,280,2012-10-07 19:00:00
9:30 PM,73.4,60.8,65,30.09,-9999.0,Variable,2.3,-,N/A,,Clear,0,2012-10-07 19:30:00
10:00 PM,73.4,60.8,65,30.12,-9999.0,Variable,1.2,-,N/A,,Clear,0,2012-10-07 20:00:00
10:30 PM,71.6,62.6,73,30.12,-9999.0,Calm,Calm,-,N/A,,Clear,0,2012-10-07 20:30:00
11:00 PM,68.0,62.6,83,30.12,-9999.0,Calm,Calm,-,N/A,,Clear,0,2012-10-07 21:00:00